Airfield :







YOU CAN JOIN US ON...

 
LOGIN :

Register | Disclaimer

   EN    FR    IT 

 









Legend :    VFR   Marginal VFR   IFR   Intensive IFR   Very Intensive IFR
Visi :
Ceiling :
>= 8 km
>= 3000ft
5 to 8 km
1000 to 3000 ft
1500m to 5 km
500 to 1000 ft
800 to 1500m
200 to 500 ft
< 800m
< 200 ft
Symbols :   Thunderstorms  Fog  Heavy snow  Heavy precipitations  Wind > 20 kt






- Airport Elevation : 160 ft
- IATA code : YYG


CYYG - Charlottetown

CURRENT METAR :
  • 311020Z 32005KT 15SM -SHSN FEW030 OVC056 02/M05 A3014 RMK SC3SC5 VIS LWR SW CVCTV CLD EMBD PRESRR SLP211

EXPIRED METARs :
  • 311000Z 35009KT 15SM FEW020 OVC060 02/M05 A3013 RMK SC1SC7 SLP205
  • 310900Z 34008KT 15SM FEW030 BKN049 02/M06 A3009 RMK SC1SC6 SLP193
  • 310800Z 34008KT 15SM FEW030 BKN060 OVC220 02/M06 A3006 RMK SC2SC5CS1 SLP182
  • 310751Z 34008KT 15SM FEW030 BKN065 OVC220 01/M05 A3005 RMK SC2SC4CS2 SLP180
  • 310728Z 36005KT 15SM -SHSN BKN045 OVC065 01/M04 A3005 RMK SC5SC3 CVCTV CLD EMBD SLP179

TAF TAF CYYG
Valid from the 31 at 06:00 until the 31 at 18:00 UTC


310546Z 3106/3118 01012G22KT P6SM -SHSN SCT010 OVC030
TEMPO 3106/3109 2SM -SHSN BKN010 OVC020
FM310900 34012G22KT P6SM BKN025
TEMPO 3109/3114 5SM -SHSN BKN020
FM311400 29012KT P6SM BKN030 RMK NXT FCST BY 311200Z
CZQM FIR / North America



MET'MAP, your aeronautical weather chart ! - Copyright ORBIFLY December 2007 - Disclaimer

ORBIFLY MET'MAP TEAM :

Programming & Development : Alexandra Zaïnal
Concept & original design : Baudouin d'Aumeries
Assistance for programming : Marc-Olivier Méhu
Technical & hardware support : Manuel Goepfert

Contact : metmap@orbifly.com




SOURCES & CREDITS :

   NOAA